sensor_id;sensor_type;location;lat;lon;timestamp;P1;durP1;ratioP1;P2;durP2;ratioP2
52744;SDS011;38637;49.984;20.426;2023-01-24T00:01:28;110.40;;;50.13;;
52744;SDS011;38637;49.984;20.426;2023-01-24T00:03:53;111.50;;;49.43;;
52744;SDS011;38637;49.984;20.426;2023-01-24T00:06:19;94.90;;;45.47;;
52744;SDS011;38637;49.984;20.426;2023-01-24T00:08:44;124.43;;;49.27;;
52744;SDS011;38637;49.984;20.426;2023-01-24T00:11:10;110.60;;;47.07;;
52744;SDS011;38637;49.984;20.426;2023-01-24T00:13:37;106.63;;;46.03;;
52744;SDS011;38637;49.984;20.426;2023-01-24T00:16:16;100.70;;;46.28;;
52744;SDS011;38637;49.984;20.426;2023-01-24T00:18:44;102.18;;;47.03;;
52744;SDS011;38637;49.984;20.426;2023-01-24T00:21:13;95.40;;;46.00;;
52744;SDS011;38637;49.984;20.426;2023-01-24T00:23:49;94.13;;;44.20;;
52744;SDS011;38637;49.984;20.426;2023-01-24T00:26:16;82.47;;;42.28;;
52744;SDS011;38637;49.984;20.426;2023-01-24T00:28:42;92.15;;;44.72;;
52744;SDS011;38637;49.984;20.426;2023-01-24T00:31:08;85.63;;;40.92;;
52744;SDS011;38637;49.984;20.426;2023-01-24T00:33:34;88.03;;;44.07;;
52744;SDS011;38637;49.984;20.426;2023-01-24T00:35:59;90.13;;;47.57;;
52744;SDS011;38637;49.984;20.426;2023-01-24T00:38:25;85.07;;;42.37;;
52744;SDS011;38637;49.984;20.426;2023-01-24T00:40:52;89.57;;;43.90;;
52744;SDS011;38637;49.984;20.426;2023-01-24T00:43:17;82.87;;;41.63;;
52744;SDS011;38637;49.984;20.426;2023-01-24T00:45:44;92.27;;;45.83;;
52744;SDS011;38637;49.984;20.426;2023-01-24T00:48:10;87.03;;;43.47;;
52744;SDS011;38637;49.984;20.426;2023-01-24T00:50:36;79.37;;;42.53;;
52744;SDS011;38637;49.984;20.426;2023-01-24T00:53:01;83.20;;;42.03;;
52744;SDS011;38637;49.984;20.426;2023-01-24T00:55:27;92.57;;;44.13;;
52744;SDS011;38637;49.984;20.426;2023-01-24T00:57:53;91.33;;;42.70;;
52744;SDS011;38637;49.984;20.426;2023-01-24T01:00:18;83.93;;;41.10;;
52744;SDS011;38637;49.984;20.426;2023-01-24T01:02:44;100.00;;;44.40;;
52744;SDS011;38637;49.984;20.426;2023-01-24T01:05:09;92.83;;;44.80;;
52744;SDS011;38637;49.984;20.426;2023-01-24T01:07:35;86.40;;;41.40;;
52744;SDS011;38637;49.984;20.426;2023-01-24T01:10:00;89.13;;;41.27;;
52744;SDS011;38637;49.984;20.426;2023-01-24T01:12:26;86.03;;;42.67;;
52744;SDS011;38637;49.984;20.426;2023-01-24T01:14:51;87.53;;;43.13;;
52744;SDS011;38637;49.984;20.426;2023-01-24T01:17:17;88.10;;;43.83;;
52744;SDS011;38637;49.984;20.426;2023-01-24T01:19:42;79.73;;;43.07;;
52744;SDS011;38637;49.984;20.426;2023-01-24T01:22:07;75.50;;;39.63;;
52744;SDS011;38637;49.984;20.426;2023-01-24T01:24:33;77.30;;;40.77;;
52744;SDS011;38637;49.984;20.426;2023-01-24T01:26:58;92.90;;;42.10;;
52744;SDS011;38637;49.984;20.426;2023-01-24T01:29:24;88.43;;;43.20;;
52744;SDS011;38637;49.984;20.426;2023-01-24T01:31:49;76.20;;;38.37;;
52744;SDS011;38637;49.984;20.426;2023-01-24T01:34:16;74.57;;;38.13;;
52744;SDS011;38637;49.984;20.426;2023-01-24T01:36:42;68.18;;;35.83;;
52744;SDS011;38637;49.984;20.426;2023-01-24T01:39:07;61.40;;;35.53;;
52744;SDS011;38637;49.984;20.426;2023-01-24T01:41:33;60.60;;;34.20;;
52744;SDS011;38637;49.984;20.426;2023-01-24T01:47:02;58.42;;;32.78;;
52744;SDS011;38637;49.984;20.426;2023-01-24T01:49:28;51.50;;;28.83;;
52744;SDS011;38637;49.984;20.426;2023-01-24T01:51:55;40.28;;;23.60;;
52744;SDS011;38637;49.984;20.426;2023-01-24T01:54:28;40.42;;;24.65;;
52744;SDS011;38637;49.984;20.426;2023-01-24T01:57:08;41.28;;;24.45;;
52744;SDS011;38637;49.984;20.426;2023-01-24T01:59:41;41.33;;;25.45;;
52744;SDS011;38637;49.984;20.426;2023-01-24T02:02:20;38.53;;;21.75;;
52744;SDS011;38637;49.984;20.426;2023-01-24T02:04:48;40.35;;;23.75;;
52744;SDS011;38637;49.984;20.426;2023-01-24T02:07:23;37.35;;;23.27;;
52744;SDS011;38637;49.984;20.426;2023-01-24T02:09:55;37.80;;;25.33;;
52744;SDS011;38637;49.984;20.426;2023-01-24T02:12:26;33.95;;;22.40;;
52744;SDS011;38637;49.984;20.426;2023-01-24T02:14:57;35.83;;;22.55;;
52744;SDS011;38637;49.984;20.426;2023-01-24T02:17:44;31.25;;;21.75;;
52744;SDS011;38637;49.984;20.426;2023-01-24T02:20:21;29.77;;;18.90;;
52744;SDS011;38637;49.984;20.426;2023-01-24T02:28:06;32.78;;;20.15;;
52744;SDS011;38637;49.984;20.426;2023-01-24T02:30:33;30.45;;;19.23;;
52744;SDS011;38637;49.984;20.426;2023-01-24T02:33:11;29.33;;;17.95;;
52744;SDS011;38637;49.984;20.426;2023-01-24T02:35:40;23.02;;;14.90;;
52744;SDS011;38637;49.984;20.426;2023-01-24T02:38:06;20.33;;;12.77;;
52744;SDS011;38637;49.984;20.426;2023-01-24T02:40:40;18.77;;;11.95;;
52744;SDS011;38637;49.984;20.426;2023-01-24T02:43:06;22.77;;;15.07;;
52744;SDS011;38637;49.984;20.426;2023-01-24T02:45:33;19.77;;;13.88;;
52744;SDS011;38637;49.984;20.426;2023-01-24T02:47:59;20.48;;;14.48;;
52744;SDS011;38637;49.984;20.426;2023-01-24T02:50:26;26.63;;;15.23;;
52744;SDS011;38637;49.984;20.426;2023-01-24T02:52:52;23.33;;;13.65;;
52744;SDS011;38637;49.984;20.426;2023-01-24T02:55:36;24.63;;;16.25;;
52744;SDS011;38637;49.984;20.426;2023-01-24T02:58:21;26.60;;;15.90;;
52744;SDS011;38637;49.984;20.426;2023-01-24T03:00:46;25.93;;;16.10;;
52744;SDS011;38637;49.984;20.426;2023-01-24T03:03:11;29.53;;;17.70;;
52744;SDS011;38637;49.984;20.426;2023-01-24T03:05:37;28.97;;;17.60;;
52744;SDS011;38637;49.984;20.426;2023-01-24T03:08:18;32.42;;;16.23;;
52744;SDS011;38637;49.984;20.426;2023-01-24T03:10:43;25.27;;;15.73;;
52744;SDS011;38637;49.984;20.426;2023-01-24T03:13:11;29.88;;;17.33;;
52744;SDS011;38637;49.984;20.426;2023-01-24T03:15:55;32.85;;;21.15;;
52744;SDS011;38637;49.984;20.426;2023-01-24T03:18:42;31.40;;;17.75;;
52744;SDS011;38637;49.984;20.426;2023-01-24T03:21:26;34.67;;;18.38;;
52744;SDS011;38637;49.984;20.426;2023-01-24T03:24:10;33.08;;;19.90;;
52744;SDS011;38637;49.984;20.426;2023-01-24T03:26:54;34.85;;;19.42;;
52744;SDS011;38637;49.984;20.426;2023-01-24T03:29:37;39.03;;;20.70;;
52744;SDS011;38637;49.984;20.426;2023-01-24T03:32:21;38.88;;;23.55;;
52744;SDS011;38637;49.984;20.426;2023-01-24T03:35:05;41.85;;;24.15;;
52744;SDS011;38637;49.984;20.426;2023-01-24T03:37:31;36.57;;;19.80;;
52744;SDS011;38637;49.984;20.426;2023-01-24T03:40:15;40.38;;;19.60;;
52744;SDS011;38637;49.984;20.426;2023-01-24T03:42:41;48.47;;;21.50;;
52744;SDS011;38637;49.984;20.426;2023-01-24T03:45:16;45.22;;;22.98;;
52744;SDS011;38637;49.984;20.426;2023-01-24T03:47:44;37.55;;;21.42;;
52744;SDS011;38637;49.984;20.426;2023-01-24T03:50:19;39.97;;;21.55;;
52744;SDS011;38637;49.984;20.426;2023-01-24T03:53:04;40.35;;;21.85;;
52744;SDS011;38637;49.984;20.426;2023-01-24T03:55:30;37.17;;;22.48;;
52744;SDS011;38637;49.984;20.426;2023-01-24T03:57:56;39.07;;;21.17;;
52744;SDS011;38637;49.984;20.426;2023-01-24T04:00:21;31.47;;;18.93;;
52744;SDS011;38637;49.984;20.426;2023-01-24T04:02:46;34.33;;;19.13;;
52744;SDS011;38637;49.984;20.426;2023-01-24T04:05:11;36.83;;;20.27;;
52744;SDS011;38637;49.984;20.426;2023-01-24T04:07:37;38.97;;;21.30;;
52744;SDS011;38637;49.984;20.426;2023-01-24T04:10:02;38.60;;;20.50;;
52744;SDS011;38637;49.984;20.426;2023-01-24T04:12:28;37.85;;;19.38;;
52744;SDS011;38637;49.984;20.426;2023-01-24T04:14:53;40.67;;;21.73;;
52744;SDS011;38637;49.984;20.426;2023-01-24T04:17:19;39.40;;;20.60;;
52744;SDS011;38637;49.984;20.426;2023-01-24T04:19:44;36.37;;;19.80;;
52744;SDS011;38637;49.984;20.426;2023-01-24T04:22:09;34.87;;;19.03;;
52744;SDS011;38637;49.984;20.426;2023-01-24T04:24:35;34.67;;;21.63;;
52744;SDS011;38637;49.984;20.426;2023-01-24T04:27:00;34.90;;;19.63;;
52744;SDS011;38637;49.984;20.426;2023-01-24T04:29:25;37.87;;;20.10;;
52744;SDS011;38637;49.984;20.426;2023-01-24T04:31:50;29.47;;;17.67;;
52744;SDS011;38637;49.984;20.426;2023-01-24T04:34:16;33.13;;;18.63;;
52744;SDS011;38637;49.984;20.426;2023-01-24T04:36:41;36.57;;;20.60;;
52744;SDS011;38637;49.984;20.426;2023-01-24T04:39:06;36.23;;;18.70;;
52744;SDS011;38637;49.984;20.426;2023-01-24T04:41:32;46.47;;;26.30;;
52744;SDS011;38637;49.984;20.426;2023-01-24T04:43:57;57.70;;;32.47;;
52744;SDS011;38637;49.984;20.426;2023-01-24T04:46:22;46.57;;;24.57;;
52744;SDS011;38637;49.984;20.426;2023-01-24T04:48:47;36.57;;;20.40;;
52744;SDS011;38637;49.984;20.426;2023-01-24T04:51:13;36.03;;;19.23;;
52744;SDS011;38637;49.984;20.426;2023-01-24T04:53:38;40.60;;;21.40;;
52744;SDS011;38637;49.984;20.426;2023-01-24T04:56:04;39.55;;;20.33;;
52744;SDS011;38637;49.984;20.426;2023-01-24T04:58:31;38.40;;;19.05;;
52744;SDS011;38637;49.984;20.426;2023-01-24T05:00:57;36.63;;;21.27;;
52744;SDS011;38637;49.984;20.426;2023-01-24T05:03:22;44.67;;;22.53;;
52744;SDS011;38637;49.984;20.426;2023-01-24T05:05:48;39.03;;;22.40;;
52744;SDS011;38637;49.984;20.426;2023-01-24T05:08:17;37.40;;;21.35;;
52744;SDS011;38637;49.984;20.426;2023-01-24T05:10:43;46.10;;;22.17;;
52744;SDS011;38637;49.984;20.426;2023-01-24T05:13:08;42.13;;;23.07;;
52744;SDS011;38637;49.984;20.426;2023-01-24T05:15:34;45.70;;;23.27;;
52744;SDS011;38637;49.984;20.426;2023-01-24T05:18:00;45.20;;;24.80;;
52744;SDS011;38637;49.984;20.426;2023-01-24T05:20:26;48.93;;;24.47;;
52744;SDS011;38637;49.984;20.426;2023-01-24T05:22:51;52.10;;;25.73;;
52744;SDS011;38637;49.984;20.426;2023-01-24T05:25:16;50.13;;;25.10;;
52744;SDS011;38637;49.984;20.426;2023-01-24T05:27:42;52.40;;;25.53;;
52744;SDS011;38637;49.984;20.426;2023-01-24T05:30:08;63.10;;;26.67;;
52744;SDS011;38637;49.984;20.426;2023-01-24T05:32:34;55.63;;;25.63;;
52744;SDS011;38637;49.984;20.426;2023-01-24T05:34:59;55.90;;;27.30;;
52744;SDS011;38637;49.984;20.426;2023-01-24T05:37:24;50.83;;;27.47;;
52744;SDS011;38637;49.984;20.426;2023-01-24T05:39:50;59.43;;;27.80;;
52744;SDS011;38637;49.984;20.426;2023-01-24T05:42:15;60.00;;;27.73;;
52744;SDS011;38637;49.984;20.426;2023-01-24T05:44:40;86.37;;;29.07;;
52744;SDS011;38637;49.984;20.426;2023-01-24T05:47:06;59.33;;;27.07;;
52744;SDS011;38637;49.984;20.426;2023-01-24T05:49:31;63.97;;;26.47;;
52744;SDS011;38637;49.984;20.426;2023-01-24T05:51:56;70.93;;;27.90;;
52744;SDS011;38637;49.984;20.426;2023-01-24T05:54:21;60.30;;;23.57;;
52744;SDS011;38637;49.984;20.426;2023-01-24T05:56:47;55.80;;;23.37;;
52744;SDS011;38637;49.984;20.426;2023-01-24T05:59:12;57.37;;;23.87;;
52744;SDS011;38637;49.984;20.426;2023-01-24T06:01:38;73.28;;;26.70;;
52744;SDS011;38637;49.984;20.426;2023-01-24T06:04:04;65.03;;;26.87;;
52744;SDS011;38637;49.984;20.426;2023-01-24T06:06:29;71.97;;;25.93;;
52744;SDS011;38637;49.984;20.426;2023-01-24T06:08:54;88.50;;;29.13;;
52744;SDS011;38637;49.984;20.426;2023-01-24T06:11:24;74.20;;;30.33;;
52744;SDS011;38637;49.984;20.426;2023-01-24T06:13:52;74.40;;;27.70;;
52744;SDS011;38637;49.984;20.426;2023-01-24T06:16:19;80.05;;;33.30;;
52744;SDS011;38637;49.984;20.426;2023-01-24T06:18:47;82.00;;;31.70;;
52744;SDS011;38637;49.984;20.426;2023-01-24T06:23:58;119.57;;;54.67;;
52744;SDS011;38637;49.984;20.426;2023-01-24T06:26:23;117.50;;;55.40;;
52744;SDS011;38637;49.984;20.426;2023-01-24T06:28:49;82.40;;;38.53;;
52744;SDS011;38637;49.984;20.426;2023-01-24T06:31:24;82.97;;;31.00;;
52744;SDS011;38637;49.984;20.426;2023-01-24T06:39:29;102.65;;;31.48;;
52744;SDS011;38637;49.984;20.426;2023-01-24T06:41:55;94.93;;;30.77;;
52744;SDS011;38637;49.984;20.426;2023-01-24T06:44:21;71.90;;;27.27;;
52744;SDS011;38637;49.984;20.426;2023-01-24T06:46:46;95.33;;;34.80;;
52744;SDS011;38637;49.984;20.426;2023-01-24T06:49:12;66.90;;;32.47;;
52744;SDS011;38637;49.984;20.426;2023-01-24T06:51:37;79.37;;;33.27;;
52744;SDS011;38637;49.984;20.426;2023-01-24T06:54:02;78.23;;;34.77;;
52744;SDS011;38637;49.984;20.426;2023-01-24T06:56:28;59.47;;;28.23;;
52744;SDS011;38637;49.984;20.426;2023-01-24T06:58:53;65.20;;;31.60;;
52744;SDS011;38637;49.984;20.426;2023-01-24T07:01:18;120.47;;;51.77;;
52744;SDS011;38637;49.984;20.426;2023-01-24T07:03:44;114.00;;;50.37;;
52744;SDS011;38637;49.984;20.426;2023-01-24T07:06:09;68.10;;;29.47;;
52744;SDS011;38637;49.984;20.426;2023-01-24T07:08:34;78.93;;;35.03;;
52744;SDS011;38637;49.984;20.426;2023-01-24T07:10:59;123.87;;;57.50;;
52744;SDS011;38637;49.984;20.426;2023-01-24T07:13:25;126.33;;;60.17;;
52744;SDS011;38637;49.984;20.426;2023-01-24T07:15:50;107.37;;;54.03;;
52744;SDS011;38637;49.984;20.426;2023-01-24T07:18:16;123.33;;;63.53;;
52744;SDS011;38637;49.984;20.426;2023-01-24T07:20:42;131.50;;;70.25;;
52744;SDS011;38637;49.984;20.426;2023-01-24T07:23:19;105.07;;;55.60;;
52744;SDS011;38637;49.984;20.426;2023-01-24T07:25:46;72.07;;;38.58;;
52744;SDS011;38637;49.984;20.426;2023-01-24T07:28:12;61.92;;;34.08;;
52744;SDS011;38637;49.984;20.426;2023-01-24T07:30:38;62.93;;;36.60;;
52744;SDS011;38637;49.984;20.426;2023-01-24T07:33:03;65.40;;;35.07;;
52744;SDS011;38637;49.984;20.426;2023-01-24T07:35:28;56.53;;;32.73;;
52744;SDS011;38637;49.984;20.426;2023-01-24T07:37:54;46.13;;;27.43;;
52744;SDS011;38637;49.984;20.426;2023-01-24T07:40:19;43.23;;;27.10;;
52744;SDS011;38637;49.984;20.426;2023-01-24T07:42:44;47.37;;;28.80;;
52744;SDS011;38637;49.984;20.426;2023-01-24T07:45:10;48.53;;;30.57;;
52744;SDS011;38637;49.984;20.426;2023-01-24T07:47:35;47.00;;;29.40;;
52744;SDS011;38637;49.984;20.426;2023-01-24T07:50:00;58.93;;;33.53;;
52744;SDS011;38637;49.984;20.426;2023-01-24T07:52:26;56.80;;;32.50;;
52744;SDS011;38637;49.984;20.426;2023-01-24T07:54:51;53.43;;;31.17;;
52744;SDS011;38637;49.984;20.426;2023-01-24T07:57:16;53.20;;;30.97;;
52744;SDS011;38637;49.984;20.426;2023-01-24T07:59:41;43.23;;;28.83;;
52744;SDS011;38637;49.984;20.426;2023-01-24T08:02:09;43.47;;;28.53;;
52744;SDS011;38637;49.984;20.426;2023-01-24T08:04:35;44.42;;;27.83;;
52744;SDS011;38637;49.984;20.426;2023-01-24T08:07:00;41.37;;;26.70;;
52744;SDS011;38637;49.984;20.426;2023-01-24T08:09:45;42.85;;;25.63;;
52744;SDS011;38637;49.984;20.426;2023-01-24T08:12:12;37.78;;;23.30;;
52744;SDS011;38637;49.984;20.426;2023-01-24T08:14:37;37.33;;;25.67;;
52744;SDS011;38637;49.984;20.426;2023-01-24T08:17:03;36.00;;;24.23;;
52744;SDS011;38637;49.984;20.426;2023-01-24T08:19:28;34.57;;;23.20;;
52744;SDS011;38637;49.984;20.426;2023-01-24T08:21:53;32.53;;;20.07;;
52744;SDS011;38637;49.984;20.426;2023-01-24T08:24:19;30.43;;;20.43;;
52744;SDS011;38637;49.984;20.426;2023-01-24T08:26:44;37.53;;;24.83;;
52744;SDS011;38637;49.984;20.426;2023-01-24T08:29:13;29.08;;;20.52;;
52744;SDS011;38637;49.984;20.426;2023-01-24T08:31:39;29.50;;;20.13;;
52744;SDS011;38637;49.984;20.426;2023-01-24T08:34:04;26.63;;;18.87;;
52744;SDS011;38637;49.984;20.426;2023-01-24T08:36:30;25.73;;;17.63;;
52744;SDS011;38637;49.984;20.426;2023-01-24T08:38:55;22.13;;;17.77;;
52744;SDS011;38637;49.984;20.426;2023-01-24T08:41:20;22.97;;;16.40;;
52744;SDS011;38637;49.984;20.426;2023-01-24T08:43:45;20.20;;;16.00;;
52744;SDS011;38637;49.984;20.426;2023-01-24T08:46:11;23.30;;;15.50;;
52744;SDS011;38637;49.984;20.426;2023-01-24T08:48:36;23.37;;;15.47;;
52744;SDS011;38637;49.984;20.426;2023-01-24T08:51:04;21.07;;;15.50;;
52744;SDS011;38637;49.984;20.426;2023-01-24T08:53:31;21.70;;;16.60;;
52744;SDS011;38637;49.984;20.426;2023-01-24T08:55:57;26.87;;;17.77;;
52744;SDS011;38637;49.984;20.426;2023-01-24T08:58:22;22.43;;;16.93;;
52744;SDS011;38637;49.984;20.426;2023-01-24T09:00:47;22.00;;;17.37;;
52744;SDS011;38637;49.984;20.426;2023-01-24T09:03:14;28.23;;;18.37;;
52744;SDS011;38637;49.984;20.426;2023-01-24T09:05:41;23.00;;;18.02;;
52744;SDS011;38637;49.984;20.426;2023-01-24T09:08:07;26.97;;;19.47;;
52744;SDS011;38637;49.984;20.426;2023-01-24T09:10:32;24.40;;;18.37;;
52744;SDS011;38637;49.984;20.426;2023-01-24T09:12:58;25.33;;;17.87;;
52744;SDS011;38637;49.984;20.426;2023-01-24T09:15:23;25.40;;;16.43;;
52744;SDS011;38637;49.984;20.426;2023-01-24T09:17:48;26.57;;;18.03;;
52744;SDS011;38637;49.984;20.426;2023-01-24T09:20:14;29.70;;;18.53;;
52744;SDS011;38637;49.984;20.426;2023-01-24T09:22:40;24.27;;;17.53;;
52744;SDS011;38637;49.984;20.426;2023-01-24T09:25:05;23.80;;;16.83;;
52744;SDS011;38637;49.984;20.426;2023-01-24T09:27:32;22.20;;;15.52;;
52744;SDS011;38637;49.984;20.426;2023-01-24T09:29:58;25.57;;;17.63;;
52744;SDS011;38637;49.984;20.426;2023-01-24T09:32:23;27.70;;;17.00;;
52744;SDS011;38637;49.984;20.426;2023-01-24T09:34:48;27.60;;;17.90;;
52744;SDS011;38637;49.984;20.426;2023-01-24T09:37:20;26.83;;;17.63;;
52744;SDS011;38637;49.984;20.426;2023-01-24T09:39:47;28.95;;;19.30;;
52744;SDS011;38637;49.984;20.426;2023-01-24T09:42:15;30.70;;;19.60;;
52744;SDS011;38637;49.984;20.426;2023-01-24T09:47:36;29.48;;;19.67;;
52744;SDS011;38637;49.984;20.426;2023-01-24T09:50:12;28.42;;;17.50;;
52744;SDS011;38637;49.984;20.426;2023-01-24T09:52:40;25.25;;;17.35;;
52744;SDS011;38637;49.984;20.426;2023-01-24T10:01:04;28.38;;;17.45;;
52744;SDS011;38637;49.984;20.426;2023-01-24T10:03:33;28.52;;;16.38;;
52744;SDS011;38637;49.984;20.426;2023-01-24T10:06:08;29.58;;;17.85;;
52744;SDS011;38637;49.984;20.426;2023-01-24T10:08:46;27.90;;;17.70;;
52744;SDS011;38637;49.984;20.426;2023-01-24T10:24:43;27.88;;;19.58;;
52744;SDS011;38637;49.984;20.426;2023-01-24T10:27:27;32.38;;;19.80;;
52744;SDS011;38637;49.984;20.426;2023-01-24T10:30:00;29.27;;;18.55;;
52744;SDS011;38637;49.984;20.426;2023-01-24T10:32:33;29.63;;;18.88;;
52744;SDS011;38637;49.984;20.426;2023-01-24T10:35:11;27.67;;;19.27;;
52744;SDS011;38637;49.984;20.426;2023-01-24T10:37:38;36.90;;;24.35;;
52744;SDS011;38637;49.984;20.426;2023-01-24T10:40:12;50.58;;;34.72;;
52744;SDS011;38637;49.984;20.426;2023-01-24T10:42:39;69.60;;;31.33;;
52744;SDS011;38637;49.984;20.426;2023-01-24T10:48:01;23.77;;;16.45;;
52744;SDS011;38637;49.984;20.426;2023-01-24T10:50:42;43.63;;;23.10;;
52744;SDS011;38637;49.984;20.426;2023-01-24T10:55:38;40.58;;;19.75;;
52744;SDS011;38637;49.984;20.426;2023-01-24T10:58:21;24.10;;;16.33;;
52744;SDS011;38637;49.984;20.426;2023-01-24T11:00:55;29.02;;;17.05;;
52744;SDS011;38637;49.984;20.426;2023-01-24T11:03:31;25.98;;;17.15;;
52744;SDS011;38637;49.984;20.426;2023-01-24T11:06:00;24.77;;;16.63;;
52744;SDS011;38637;49.984;20.426;2023-01-24T11:08:31;32.28;;;19.63;;
52744;SDS011;38637;49.984;20.426;2023-01-24T11:10:58;31.73;;;20.00;;
52744;SDS011;38637;49.984;20.426;2023-01-24T11:13:25;35.45;;;18.05;;
52744;SDS011;38637;49.984;20.426;2023-01-24T11:15:59;31.52;;;18.50;;
52744;SDS011;38637;49.984;20.426;2023-01-24T11:18:28;33.75;;;19.23;;
52744;SDS011;38637;49.984;20.426;2023-01-24T11:23:39;35.58;;;21.83;;
52744;SDS011;38637;49.984;20.426;2023-01-24T11:26:06;30.27;;;16.75;;
52744;SDS011;38637;49.984;20.426;2023-01-24T11:28:55;30.23;;;17.20;;
52744;SDS011;38637;49.984;20.426;2023-01-24T11:31:23;34.90;;;18.48;;
52744;SDS011;38637;49.984;20.426;2023-01-24T11:33:59;31.38;;;19.20;;
52744;SDS011;38637;49.984;20.426;2023-01-24T11:42:14;50.70;;;26.20;;
52744;SDS011;38637;49.984;20.426;2023-01-24T11:47:49;42.92;;;22.00;;
52744;SDS011;38637;49.984;20.426;2023-01-24T11:50:32;51.97;;;28.20;;
52744;SDS011;38637;49.984;20.426;2023-01-24T11:53:23;43.33;;;26.63;;
52744;SDS011;38637;49.984;20.426;2023-01-24T12:03:57;36.88;;;22.83;;
52744;SDS011;38637;49.984;20.426;2023-01-24T12:11:46;27.02;;;17.35;;
52744;SDS011;38637;49.984;20.426;2023-01-24T12:14:26;29.50;;;18.60;;
52744;SDS011;38637;49.984;20.426;2023-01-24T12:22:19;27.25;;;16.98;;
52744;SDS011;38637;49.984;20.426;2023-01-24T12:24:50;45.42;;;24.52;;
52744;SDS011;38637;49.984;20.426;2023-01-24T12:27:22;39.63;;;23.67;;
52744;SDS011;38637;49.984;20.426;2023-01-24T12:30:01;51.10;;;24.65;;
52744;SDS011;38637;49.984;20.426;2023-01-24T12:35:44;44.30;;;24.58;;
52744;SDS011;38637;49.984;20.426;2023-01-24T12:38:18;50.83;;;30.42;;
52744;SDS011;38637;49.984;20.426;2023-01-24T12:40:53;28.40;;;19.35;;
52744;SDS011;38637;49.984;20.426;2023-01-24T12:43:51;28.13;;;17.67;;
52744;SDS011;38637;49.984;20.426;2023-01-24T12:46:29;28.23;;;18.17;;
52744;SDS011;38637;49.984;20.426;2023-01-24T12:49:25;37.85;;;25.90;;
52744;SDS011;38637;49.984;20.426;2023-01-24T12:55:04;46.45;;;31.65;;
52744;SDS011;38637;49.984;20.426;2023-01-24T12:57:48;51.63;;;33.28;;
52744;SDS011;38637;49.984;20.426;2023-01-24T13:00:20;55.17;;;31.30;;
52744;SDS011;38637;49.984;20.426;2023-01-24T13:11:25;21.55;;;16.08;;
52744;SDS011;38637;49.984;20.426;2023-01-24T13:13:58;22.23;;;15.82;;
52744;SDS011;38637;49.984;20.426;2023-01-24T13:27:55;31.57;;;22.83;;
52744;SDS011;38637;49.984;20.426;2023-01-24T13:33:16;24.60;;;18.13;;
52744;SDS011;38637;49.984;20.426;2023-01-24T13:35:53;16.42;;;14.38;;
52744;SDS011;38637;49.984;20.426;2023-01-24T13:38:23;14.95;;;11.45;;
52744;SDS011;38637;49.984;20.426;2023-01-24T13:40:58;13.50;;;10.65;;
52744;SDS011;38637;49.984;20.426;2023-01-24T13:46:01;12.75;;;9.77;;
52744;SDS011;38637;49.984;20.426;2023-01-24T13:56:31;20.55;;;15.57;;
52744;SDS011;38637;49.984;20.426;2023-01-24T13:58:57;18.42;;;12.82;;
52744;SDS011;38637;49.984;20.426;2023-01-24T14:01:23;17.40;;;13.68;;
52744;SDS011;38637;49.984;20.426;2023-01-24T14:04:00;19.35;;;13.82;;
52744;SDS011;38637;49.984;20.426;2023-01-24T14:06:38;19.05;;;14.13;;
52744;SDS011;38637;49.984;20.426;2023-01-24T14:09:22;24.55;;;16.98;;
52744;SDS011;38637;49.984;20.426;2023-01-24T14:11:53;22.27;;;17.35;;
52744;SDS011;38637;49.984;20.426;2023-01-24T14:14:30;22.00;;;16.67;;
52744;SDS011;38637;49.984;20.426;2023-01-24T14:16:58;20.58;;;16.60;;
52744;SDS011;38637;49.984;20.426;2023-01-24T14:19:27;42.95;;;30.08;;
52744;SDS011;38637;49.984;20.426;2023-01-24T14:27:15;32.45;;;26.08;;
52744;SDS011;38637;49.984;20.426;2023-01-24T14:29:44;32.63;;;22.48;;
52744;SDS011;38637;49.984;20.426;2023-01-24T14:32:20;33.65;;;22.35;;
52744;SDS011;38637;49.984;20.426;2023-01-24T14:34:52;29.10;;;23.08;;
52744;SDS011;38637;49.984;20.426;2023-01-24T14:37:24;35.47;;;25.08;;
52744;SDS011;38637;49.984;20.426;2023-01-24T14:42:15;33.25;;;23.30;;
52744;SDS011;38637;49.984;20.426;2023-01-24T14:44:54;38.50;;;26.53;;
52744;SDS011;38637;49.984;20.426;2023-01-24T14:47:22;43.78;;;25.83;;
52744;SDS011;38637;49.984;20.426;2023-01-24T14:49:53;30.75;;;21.85;;
52744;SDS011;38637;49.984;20.426;2023-01-24T14:57:24;19.35;;;15.68;;
52744;SDS011;38637;49.984;20.426;2023-01-24T15:02:37;16.38;;;14.07;;
52744;SDS011;38637;49.984;20.426;2023-01-24T15:05:33;18.88;;;14.98;;
52744;SDS011;38637;49.984;20.426;2023-01-24T15:08:04;21.23;;;17.45;;
52744;SDS011;38637;49.984;20.426;2023-01-24T15:10:33;27.67;;;23.00;;
52744;SDS011;38637;49.984;20.426;2023-01-24T15:13:01;29.73;;;23.10;;
52744;SDS011;38637;49.984;20.426;2023-01-24T15:15:30;38.10;;;29.25;;
52744;SDS011;38637;49.984;20.426;2023-01-24T15:18:06;28.37;;;22.53;;
52744;SDS011;38637;49.984;20.426;2023-01-24T15:20:46;29.85;;;21.77;;
52744;SDS011;38637;49.984;20.426;2023-01-24T15:23:13;30.02;;;22.45;;
52744;SDS011;38637;49.984;20.426;2023-01-24T15:25:45;29.10;;;21.23;;
52744;SDS011;38637;49.984;20.426;2023-01-24T15:28:27;25.57;;;20.20;;
52744;SDS011;38637;49.984;20.426;2023-01-24T15:30:55;22.73;;;16.98;;
52744;SDS011;38637;49.984;20.426;2023-01-24T15:33:25;20.23;;;16.80;;
52744;SDS011;38637;49.984;20.426;2023-01-24T15:36:15;20.23;;;15.32;;
52744;SDS011;38637;49.984;20.426;2023-01-24T15:38:45;20.98;;;14.68;;
52744;SDS011;38637;49.984;20.426;2023-01-24T15:41:21;17.75;;;14.10;;
52744;SDS011;38637;49.984;20.426;2023-01-24T15:49:33;54.05;;;31.05;;
52744;SDS011;38637;49.984;20.426;2023-01-24T15:52:01;38.92;;;24.80;;
52744;SDS011;38637;49.984;20.426;2023-01-24T15:54:27;42.35;;;26.98;;
52744;SDS011;38637;49.984;20.426;2023-01-24T15:56:53;23.88;;;19.25;;
52744;SDS011;38637;49.984;20.426;2023-01-24T15:59:20;21.25;;;17.77;;
52744;SDS011;38637;49.984;20.426;2023-01-24T16:01:47;23.98;;;16.45;;
52744;SDS011;38637;49.984;20.426;2023-01-24T16:04:17;22.85;;;16.33;;
52744;SDS011;38637;49.984;20.426;2023-01-24T16:06:43;21.83;;;17.17;;
52744;SDS011;38637;49.984;20.426;2023-01-24T16:09:09;30.47;;;25.90;;
52744;SDS011;38637;49.984;20.426;2023-01-24T16:11:34;30.37;;;24.17;;
52744;SDS011;38637;49.984;20.426;2023-01-24T16:14:01;30.05;;;21.08;;
52744;SDS011;38637;49.984;20.426;2023-01-24T16:16:26;27.13;;;19.03;;
52744;SDS011;38637;49.984;20.426;2023-01-24T16:18:52;23.27;;;18.50;;
52744;SDS011;38637;49.984;20.426;2023-01-24T16:21:17;26.13;;;19.63;;
52744;SDS011;38637;49.984;20.426;2023-01-24T16:23:43;27.83;;;22.67;;
52744;SDS011;38637;49.984;20.426;2023-01-24T16:26:16;43.60;;;33.77;;
52744;SDS011;38637;49.984;20.426;2023-01-24T16:28:46;58.08;;;41.25;;
52744;SDS011;38637;49.984;20.426;2023-01-24T16:31:12;65.80;;;44.97;;
52744;SDS011;38637;49.984;20.426;2023-01-24T16:33:37;69.83;;;45.73;;
52744;SDS011;38637;49.984;20.426;2023-01-24T16:36:02;100.97;;;60.97;;